Time;durP1;ratioP1;P1;durP2;ratioP2;P2;SDS_P1;SDS_P2;PMS_P1;PMS_P2;Temp;Humidity;BMP_temperature;BMP_pressure;BME280_temperature;BME280_humidity;BME280_pressure;Samples;Min_cycle;Max_cycle;Signal;HPM_P1;HPM_P2
2022/11/18 00:02:02;;;;;;;;;;;8.40;99.90;;;;;;5028072;28;19999;-68
2022/11/18 00:04:28;;;;;;;;;;;8.50;99.90;;;;;;5026727;28;19960;-65
2022/11/18 00:06:53;;;;;;;;;;;8.40;99.90;;;;;;5027189;28;19944;-68
2022/11/18 00:09:19;;;;;;;;;;;8.40;99.90;;;;;;5022917;28;20057;-66
2022/11/18 00:14:28;;;;;;;;;;;8.50;99.90;;;;;;5024744;28;19986;-68
2022/11/18 00:16:53;;;;;;;;;;;8.50;99.90;;;;;;5027098;28;20427;-66
2022/11/18 00:19:20;;;;;;;;;;;8.40;99.90;;;;;;5026781;28;19917;-68
2022/11/18 00:21:45;;;;;;;;;;;8.40;99.90;;;;;;5024918;28;20649;-67
2022/11/18 00:24:11;;;;;;;;;;;8.40;99.90;;;;;;5025853;28;19917;-69
2022/11/18 00:26:36;;;;;;;;;;;8.50;99.90;;;;;;5027004;28;19916;-66
2022/11/18 00:29:03;;;;;;;;;;;8.40;99.90;;;;;;5026212;28;19921;-68
2022/11/18 00:31:29;;;;;;;;;;;8.40;99.90;;;;;;5027716;28;19913;-69
2022/11/18 00:33:54;;;;;;;;;;;8.40;99.90;;;;;;5026193;28;19924;-66
2022/11/18 00:36:20;;;;;;;;;;;8.40;99.90;;;;;;5027816;28;19949;-68
2022/11/18 00:38:45;;;;;;;;;;;8.40;99.90;;;;;;5025357;28;19917;-68
2022/11/18 00:41:12;;;;;;;;;;;8.40;99.90;;;;;;5027785;28;19975;-67
2022/11/18 00:43:38;;;;;;;;;;;8.30;99.90;;;;;;5026265;28;19916;-69
2022/11/18 00:46:04;;;;;;;;;;;8.30;99.90;;;;;;5027252;28;19924;-67
2022/11/18 00:48:30;;;;;;;;;;;8.30;99.90;;;;;;5026447;28;19917;-68
2022/11/18 00:51:05;;;;;;;;;;;8.30;99.90;;;;;;5026330;28;19966;-66
2022/11/18 00:53:30;;;;;;;;;;;8.30;99.90;;;;;;5021499;28;19921;-68
2022/11/18 00:55:56;;;;;;;;;;;8.30;99.90;;;;;;5026703;28;20007;-65
2022/11/18 00:58:21;;;;;;;;;;;8.30;99.90;;;;;;5023423;28;20080;-68
2022/11/18 01:00:49;;;;;;;;;;;8.20;99.90;;;;;;5026238;28;20007;-68
2022/11/18 01:03:14;;;;;;;;;;;8.20;99.90;;;;;;5026602;28;19920;-67
2022/11/18 01:05:40;;;;;;;;;;;8.20;99.90;;;;;;5024733;28;19921;-68
2022/11/18 01:08:06;;;;;;;;;;;8.20;99.90;;;;;;5024840;28;19917;-67
2022/11/18 01:10:32;;;;;;;;;;;8.10;99.90;;;;;;5026947;28;19992;-70
2022/11/18 01:15:43;;;;;;;;;;;8.10;99.90;;;;;;5025242;28;19920;-66
2022/11/18 01:18:09;;;;;;;;;;;8.20;99.90;;;;;;5025519;28;19940;-67
2022/11/18 01:20:35;;;;;;;;;;;8.10;99.90;;;;;;5026422;28;20373;-66
2022/11/18 01:23:00;;;;;;;;;;;8.20;99.90;;;;;;5024777;28;19987;-68
2022/11/18 01:25:26;;;;;;;;;;;8.10;99.90;;;;;;5025190;28;19920;-67
2022/11/18 01:27:52;;;;;;;;;;;8.10;99.90;;;;;;5024624;28;19927;-68
2022/11/18 01:30:17;;;;;;;;;;;8.10;99.90;;;;;;5025789;28;20435;-68
2022/11/18 01:32:43;;;;;;;;;;;8.10;99.90;;;;;;5025946;28;19992;-68
2022/11/18 01:35:09;;;;;;;;;;;8.10;99.90;;;;;;5026238;28;19921;-66
2022/11/18 01:37:34;;;;;;;;;;;8.10;99.90;;;;;;5026340;28;19947;-68
2022/11/18 01:40:00;;;;;;;;;;;8.10;99.90;;;;;;5024798;28;19925;-68
2022/11/18 01:42:25;;;;;;;;;;;8.10;99.90;;;;;;5026841;28;19925;-68
2022/11/18 01:44:59;;;;;;;;;;;8.10;99.90;;;;;;5023764;28;19912;-68
2022/11/18 01:47:26;;;;;;;;;;;8.10;99.90;;;;;;5026539;28;19920;-68
2022/11/18 01:49:51;;;;;;;;;;;8.10;99.90;;;;;;5025579;28;19913;-67
2022/11/18 01:52:17;;;;;;;;;;;8.10;99.90;;;;;;5026804;28;19921;-67
2022/11/18 01:54:46;;;;;;;;;;;8.10;99.90;;;;;;5021694;28;19917;-68
2022/11/18 01:57:16;;;;;;;;;;;8.10;99.90;;;;;;5027010;28;19940;-65
2022/11/18 01:59:42;;;;;;;;;;;8.10;99.90;;;;;;5025218;28;19916;-65
2022/11/18 02:02:10;;;;;;;;;;;8.10;99.90;;;;;;5024882;28;19917;-66
2022/11/18 02:04:37;;;;;;;;;;;8.10;99.90;;;;;;5025535;28;19951;-70
2022/11/18 02:07:03;;;;;;;;;;;8.10;99.90;;;;;;5024517;28;19967;-67
2022/11/18 02:09:28;;;;;;;;;;;8.10;99.90;;;;;;5026544;28;20003;-66
2022/11/18 02:11:54;;;;;;;;;;;8.10;99.90;;;;;;5025463;28;20303;-69
2022/11/18 02:14:30;;;;;;;;;;;8.10;99.90;;;;;;5026173;28;19917;-68
2022/11/18 02:17:03;;;;;;;;;;;8.10;99.90;;;;;;5024290;28;20090;-68
2022/11/18 02:19:46;;;;;;;;;;;8.10;99.90;;;;;;5026203;28;20266;-69
2022/11/18 02:22:30;;;;;;;;;;;8.00;99.90;;;;;;5021799;28;20018;-65
2022/11/18 02:24:55;;;;;;;;;;;8.00;99.90;;;;;;5021292;28;19955;-69
2022/11/18 02:27:47;;;;;;;;;;;8.00;99.90;;;;;;5024512;28;19944;-67
2022/11/18 02:30:14;;;;;;;;;;;8.00;99.90;;;;;;5025523;28;19924;-68
2022/11/18 02:32:51;;;;;;;;;;;8.00;99.90;;;;;;5028440;28;19999;-69
2022/11/18 02:35:20;;;;;;;;;;;8.00;99.90;;;;;;5024986;28;19959;-68
2022/11/18 02:38:06;;;;;;;;;;;8.00;99.90;;;;;;5028695;28;20744;-70
2022/11/18 02:40:34;;;;;;;;;;;8.00;99.90;;;;;;5029911;28;20301;-67
2022/11/18 02:43:07;;;;;;;;;;;8.00;99.90;;;;;;5028586;28;19917;-67
2022/11/18 02:45:33;;;;;;;;;;;8.00;99.90;;;;;;5027836;28;19924;-68
2022/11/18 02:48:02;;;;;;;;;;;8.00;99.90;;;;;;5029181;28;20285;-67
2022/11/18 02:50:29;;;;;;;;;;;8.10;99.90;;;;;;5029751;28;19924;-68
2022/11/18 02:52:57;;;;;;;;;;;8.00;99.90;;;;;;5028006;28;19921;-68
2022/11/18 02:55:23;;;;;;;;;;;8.10;99.90;;;;;;5029071;28;20353;-67
2022/11/18 02:57:50;;;;;;;;;;;8.00;99.90;;;;;;5026756;28;20369;-64
2022/11/18 03:00:15;;;;;;;;;;;8.00;99.90;;;;;;5029889;28;19963;-66
2022/11/18 03:02:42;;;;;;;;;;;8.00;99.90;;;;;;5027428;28;20023;-68
2022/11/18 03:05:12;;;;;;;;;;;8.00;99.90;;;;;;5028755;28;19917;-67
2022/11/18 03:07:39;;;;;;;;;;;8.00;99.90;;;;;;5028908;28;19912;-70
2022/11/18 03:10:05;;;;;;;;;;;8.00;99.90;;;;;;5028969;28;19924;-67
2022/11/18 03:12:42;;;;;;;;;;;8.00;99.90;;;;;;5029084;28;19913;-68
2022/11/18 03:15:13;;;;;;;;;;;8.00;99.90;;;;;;5023504;28;19921;-65
2022/11/18 03:17:42;;;;;;;;;;;8.00;99.90;;;;;;5024325;28;19939;-70
2022/11/18 03:20:20;;;;;;;;;;;7.90;99.90;;;;;;5027629;28;20703;-68
2022/11/18 03:22:54;;;;;;;;;;;7.90;99.90;;;;;;5023354;28;19920;-69
2022/11/18 03:25:46;;;;;;;;;;;8.00;99.90;;;;;;5027543;28;20405;-68
2022/11/18 03:28:21;;;;;;;;;;;8.00;99.90;;;;;;5016186;28;19924;-68
2022/11/18 03:30:53;;;;;;;;;;;8.00;99.90;;;;;;5023915;28;20032;-67
2022/11/18 03:33:21;;;;;;;;;;;8.00;99.90;;;;;;5028624;28;19927;-69
2022/11/18 03:35:48;;;;;;;;;;;7.90;99.90;;;;;;5026096;28;19956;-68
2022/11/18 03:38:16;;;;;;;;;;;7.90;99.90;;;;;;5027362;28;20034;-69
2022/11/18 03:40:45;;;;;;;;;;;8.00;99.90;;;;;;5027197;28;19920;-69
2022/11/18 03:43:13;;;;;;;;;;;7.90;99.90;;;;;;5027089;28;19932;-68
2022/11/18 03:45:42;;;;;;;;;;;7.90;99.90;;;;;;5024012;28;19916;-69
2022/11/18 03:48:13;;;;;;;;;;;7.90;99.90;;;;;;5024229;28;19920;-67
2022/11/18 03:50:42;;;;;;;;;;;7.90;99.90;;;;;;5022995;28;19921;-73
2022/11/18 03:53:08;;;;;;;;;;;7.90;99.90;;;;;;5024056;28;19920;-67
2022/11/18 03:55:36;;;;;;;;;;;7.90;99.90;;;;;;5028497;28;19920;-68
2022/11/18 03:58:14;;;;;;;;;;;7.90;99.90;;;;;;5025790;28;19924;-70
2022/11/18 04:00:42;;;;;;;;;;;7.90;99.90;;;;;;5023226;28;19913;-69
2022/11/18 04:03:08;;;;;;;;;;;7.90;99.90;;;;;;5025972;28;19996;-68
2022/11/18 04:05:37;;;;;;;;;;;7.90;99.90;;;;;;5027317;28;19999;-68
2022/11/18 04:08:04;;;;;;;;;;;7.90;99.90;;;;;;5027305;28;20089;-68
2022/11/18 04:10:36;;;;;;;;;;;7.80;99.90;;;;;;5027630;28;19913;-68
2022/11/18 04:13:22;;;;;;;;;;;7.80;99.90;;;;;;5025560;28;19913;-68
2022/11/18 04:15:47;;;;;;;;;;;7.80;99.90;;;;;;5023701;28;19965;-69
2022/11/18 04:18:13;;;;;;;;;;;7.80;99.90;;;;;;5028009;28;19960;-68
2022/11/18 04:20:38;;;;;;;;;;;7.80;99.90;;;;;;5027418;28;19921;-67
2022/11/18 04:23:04;;;;;;;;;;;7.80;99.90;;;;;;5026818;28;19921;-68
2022/11/18 04:25:30;;;;;;;;;;;7.80;99.90;;;;;;5025727;28;19916;-67
2022/11/18 04:27:56;;;;;;;;;;;7.80;99.90;;;;;;5025323;28;19917;-69
2022/11/18 04:30:21;;;;;;;;;;;7.80;99.90;;;;;;5026023;28;19917;-68
2022/11/18 04:32:47;;;;;;;;;;;7.80;99.90;;;;;;5025951;28;20384;-69
2022/11/18 04:35:14;;;;;;;;;;;7.70;99.90;;;;;;5025710;28;19967;-69
2022/11/18 04:37:39;;;;;;;;;;;7.70;99.90;;;;;;5026607;28;20051;-70
2022/11/18 04:40:05;;;;;;;;;;;7.70;99.90;;;;;;5027084;28;20869;-68
2022/11/18 04:42:31;;;;;;;;;;;7.70;99.90;;;;;;5025460;28;19917;-69
2022/11/18 04:44:56;;;;;;;;;;;7.70;99.90;;;;;;5025874;28;19916;-68
2022/11/18 04:47:22;;;;;;;;;;;7.70;99.90;;;;;;5027291;28;19932;-67
2022/11/18 04:49:47;;;;;;;;;;;7.70;99.90;;;;;;5025122;28;19917;-68
2022/11/18 04:52:13;;;;;;;;;;;7.70;99.90;;;;;;5026312;28;20332;-69
2022/11/18 04:54:38;;;;;;;;;;;7.70;99.90;;;;;;5024319;28;19971;-67
2022/11/18 04:57:04;;;;;;;;;;;7.70;99.90;;;;;;5024480;28;19949;-68
2022/11/18 04:59:30;;;;;;;;;;;7.70;99.90;;;;;;5026086;28;19916;-69
2022/11/18 05:01:55;;;;;;;;;;;7.70;99.90;;;;;;5025545;28;19920;-69
2022/11/18 05:04:25;;;;;;;;;;;7.70;99.90;;;;;;5023834;28;19912;-67
2022/11/18 05:06:50;;;;;;;;;;;7.70;99.90;;;;;;5025396;28;19913;-68
2022/11/18 05:09:16;;;;;;;;;;;7.70;99.90;;;;;;5026638;28;19992;-69
2022/11/18 05:14:27;;;;;;;;;;;7.70;99.90;;;;;;5025658;28;19990;-69
2022/11/18 05:16:53;;;;;;;;;;;7.70;99.90;;;;;;5025600;28;19924;-69
2022/11/18 05:19:19;;;;;;;;;;;7.70;99.90;;;;;;5024954;28;20281;-68
2022/11/18 05:21:44;;;;;;;;;;;7.80;99.90;;;;;;5025253;28;19920;-67
2022/11/18 05:24:10;;;;;;;;;;;7.80;99.90;;;;;;5026138;28;19917;-69
2022/11/18 05:26:35;;;;;;;;;;;7.80;99.90;;;;;;5025838;28;19932;-71
2022/11/18 05:29:00;;;;;;;;;;;7.80;99.90;;;;;;5023360;28;19917;-69
2022/11/18 05:31:26;;;;;;;;;;;7.80;99.90;;;;;;5026552;28;19924;-68
2022/11/18 05:33:51;;;;;;;;;;;7.80;99.90;;;;;;5023282;28;20031;-68
2022/11/18 05:36:18;;;;;;;;;;;7.90;99.90;;;;;;5026659;28;20409;-69
2022/11/18 05:38:43;;;;;;;;;;;7.90;99.90;;;;;;5025210;28;19935;-68
2022/11/18 05:41:09;;;;;;;;;;;8.00;99.90;;;;;;5024931;28;20361;-68
2022/11/18 05:43:35;;;;;;;;;;;8.00;99.90;;;;;;5024513;28;19971;-69
2022/11/18 05:46:02;;;;;;;;;;;8.00;99.90;;;;;;5025554;28;20039;-69
2022/11/18 05:48:27;;;;;;;;;;;8.00;99.90;;;;;;5025112;28;19917;-67
2022/11/18 05:50:53;;;;;;;;;;;8.00;99.90;;;;;;5023606;28;19917;-68
2022/11/18 05:53:20;;;;;;;;;;;8.00;99.90;;;;;;5025803;28;20326;-68
2022/11/18 05:55:45;;;;;;;;;;;8.00;99.90;;;;;;5020193;28;19941;-67
2022/11/18 05:58:11;;;;;;;;;;;8.10;99.90;;;;;;5024557;28;19986;-67
2022/11/18 06:00:36;;;;;;;;;;;8.10;99.90;;;;;;5026147;28;19913;-69
2022/11/18 06:03:04;;;;;;;;;;;8.10;99.90;;;;;;5027929;28;19968;-67
2022/11/18 06:05:30;;;;;;;;;;;8.10;99.90;;;;;;5026289;28;19923;-67
2022/11/18 06:07:56;;;;;;;;;;;8.10;99.90;;;;;;5029281;28;19920;-67
2022/11/18 06:10:24;;;;;;;;;;;8.10;99.90;;;;;;5030130;28;20002;-67
2022/11/18 06:12:51;;;;;;;;;;;8.10;99.90;;;;;;5028765;28;19917;-68
2022/11/18 06:15:21;;;;;;;;;;;8.20;99.90;;;;;;5029514;28;20369;-67
2022/11/18 06:17:59;;;;;;;;;;;8.20;99.90;;;;;;5027925;28;19913;-68
2022/11/18 06:20:25;;;;;;;;;;;8.20;99.90;;;;;;5030103;28;19913;-69
2022/11/18 06:22:53;;;;;;;;;;;8.20;99.90;;;;;;5028376;28;19944;-69
2022/11/18 06:25:18;;;;;;;;;;;8.20;99.90;;;;;;5028201;28;20717;-69
2022/11/18 06:27:45;;;;;;;;;;;8.20;99.90;;;;;;5028222;28;19917;-68
2022/11/18 06:30:10;;;;;;;;;;;8.20;99.90;;;;;;5029941;28;20373;-69
2022/11/18 06:32:36;;;;;;;;;;;8.10;99.90;;;;;;5027455;28;19987;-70
2022/11/18 06:35:01;;;;;;;;;;;8.10;99.90;;;;;;5027368;28;19928;-66
2022/11/18 06:37:27;;;;;;;;;;;8.10;99.90;;;;;;5027987;28;19940;-68
2022/11/18 06:39:52;;;;;;;;;;;8.10;99.90;;;;;;5028798;28;19917;-68
2022/11/18 06:45:02;;;;;;;;;;;8.10;99.90;;;;;;5025188;28;19920;-68
2022/11/18 06:47:28;;;;;;;;;;;8.10;99.90;;;;;;5027179;28;19921;-68
2022/11/18 06:49:54;;;;;;;;;;;8.10;99.90;;;;;;5027781;28;19923;-68
2022/11/18 06:52:20;;;;;;;;;;;8.10;99.90;;;;;;5028681;28;19958;-68
2022/11/18 06:54:46;;;;;;;;;;;8.10;99.90;;;;;;5020548;28;19921;-70
2022/11/18 06:57:11;;;;;;;;;;;8.10;99.90;;;;;;5024431;28;19920;-68
2022/11/18 06:59:36;;;;;;;;;;;8.10;99.90;;;;;;5025462;28;19917;-67
2022/11/18 07:02:02;;;;;;;;;;;8.10;99.90;;;;;;5028775;28;20030;-68
2022/11/18 07:04:27;;;;;;;;;;;8.10;99.90;;;;;;5027639;28;19916;-67
2022/11/18 07:06:53;;;;;;;;;;;8.10;99.90;;;;;;5026515;28;19952;-71
2022/11/18 07:09:18;;;;;;;;;;;8.10;99.90;;;;;;5028592;28;20289;-68
2022/11/18 07:11:44;;;;;;;;;;;8.10;99.90;;;;;;5027911;28;20362;-69
2022/11/18 07:14:09;;;;;;;;;;;8.10;99.90;;;;;;5027941;28;19956;-67
2022/11/18 07:16:36;;;;;;;;;;;8.10;99.90;;;;;;5028703;28;20558;-68
2022/11/18 07:19:06;;;;;;;;;;;8.10;99.90;;;;;;5026081;28;19928;-68
2022/11/18 07:21:32;;;;;;;;;;;8.10;99.90;;;;;;5028405;28;19928;-68
2022/11/18 07:23:57;;;;;;;;;;;8.10;99.90;;;;;;5026000;28;19917;-68
2022/11/18 07:26:23;;;;;;;;;;;8.10;99.90;;;;;;5026949;28;19958;-68
2022/11/18 07:28:48;;;;;;;;;;;8.20;99.90;;;;;;5027409;28;20389;-67
2022/11/18 07:31:18;;;;;;;;;;;8.20;99.90;;;;;;5028561;28;19924;-68
2022/11/18 07:33:44;;;;;;;;;;;8.20;99.90;;;;;;5026822;28;19920;-69
2022/11/18 07:36:11;;;;;;;;;;;8.20;99.90;;;;;;5028571;28;19972;-68
2022/11/18 07:38:36;;;;;;;;;;;8.20;99.90;;;;;;5026574;28;20012;-67
2022/11/18 07:41:28;;;;;;;;;;;8.20;99.90;;;;;;5028338;28;20353;-68
2022/11/18 07:43:54;;;;;;;;;;;8.20;99.90;;;;;;5018072;28;20011;-68
2022/11/18 07:46:23;;;;;;;;;;;8.20;99.90;;;;;;5028243;28;20443;-71
2022/11/18 07:48:50;;;;;;;;;;;8.30;99.90;;;;;;5027226;28;19966;-69
2022/11/18 07:51:16;;;;;;;;;;;8.30;99.90;;;;;;5028490;28;20031;-68
2022/11/18 07:53:42;;;;;;;;;;;8.30;99.90;;;;;;5026932;28;20404;-69
2022/11/18 07:56:08;;;;;;;;;;;8.30;99.90;;;;;;5027949;28;19952;-68
2022/11/18 07:58:34;;;;;;;;;;;8.30;99.90;;;;;;5028343;28;19955;-69
2022/11/18 08:01:10;;;;;;;;;;;8.30;99.90;;;;;;5027776;28;20373;-68
2022/11/18 08:03:36;;;;;;;;;;;8.40;99.90;;;;;;5027901;28;19913;-68
2022/11/18 08:06:02;;;;;;;;;;;8.40;99.90;;;;;;5027784;28;19991;-68
2022/11/18 08:08:27;;;;;;;;;;;8.40;99.90;;;;;;5029169;28;19959;-69
2022/11/18 08:10:57;;;;;;;;;;;8.40;99.90;;;;;;5028626;28;19960;-68
2022/11/18 08:13:23;;;;;;;;;;;8.50;99.90;;;;;;5025252;28;20035;-68
2022/11/18 08:15:49;;;;;;;;;;;8.50;99.90;;;;;;5027252;28;19917;-68
2022/11/18 08:18:14;;;;;;;;;;;8.50;99.90;;;;;;5027831;28;19913;-68
2022/11/18 08:20:39;;;;;;;;;;;8.60;99.90;;;;;;5027364;28;19913;-67
2022/11/18 08:23:05;;;;;;;;;;;8.60;99.90;;;;;;5026447;28;20336;-68
2022/11/18 08:25:30;;;;;;;;;;;8.70;99.90;;;;;;5026033;28;19956;-68
2022/11/18 08:27:56;;;;;;;;;;;8.70;99.90;;;;;;5024792;28;19944;-69
2022/11/18 08:30:21;;;;;;;;;;;8.70;99.90;;;;;;5022976;28;19920;-68
2022/11/18 08:32:47;;;;;;;;;;;8.80;99.90;;;;;;5026723;28;19974;-68
2022/11/18 08:35:12;;;;;;;;;;;8.80;99.90;;;;;;5027605;28;19928;-68
2022/11/18 08:37:38;;;;;;;;;;;8.90;99.90;;;;;;5027000;28;20333;-67
2022/11/18 08:40:04;;;;;;;;;;;8.90;99.90;;;;;;5027002;28;20321;-68
2022/11/18 08:42:29;;;;;;;;;;;8.90;99.90;;;;;;5022276;28;19928;-70
2022/11/18 08:44:55;;;;;;;;;;;8.90;99.90;;;;;;5023547;28;19928;-68
2022/11/18 08:47:20;;;;;;;;;;;8.90;99.90;;;;;;5026480;28;19978;-68
2022/11/18 08:49:46;;;;;;;;;;;8.90;99.90;;;;;;5025971;28;19917;-68
2022/11/18 08:52:11;;;;;;;;;;;8.90;99.90;;;;;;5026134;28;20352;-69
2022/11/18 08:54:37;;;;;;;;;;;8.90;99.90;;;;;;5023226;28;20239;-68
2022/11/18 08:57:02;;;;;;;;;;;8.90;99.90;;;;;;5022595;28;19928;-69
2022/11/18 08:59:28;;;;;;;;;;;8.90;99.90;;;;;;5020326;28;19944;-70
2022/11/18 09:01:53;;;;;;;;;;;8.90;99.90;;;;;;5019213;28;19913;-68
2022/11/18 09:04:18;;;;;;;;;;;9.00;99.90;;;;;;5018352;28;20011;-70
2022/11/18 09:06:44;;;;;;;;;;;9.10;99.90;;;;;;5020341;28;20007;-68
2022/11/18 09:09:09;;;;;;;;;;;9.00;99.90;;;;;;5016651;28;19913;-68
2022/11/18 09:11:36;;;;;;;;;;;9.10;99.90;;;;;;5021199;28;19917;-68
2022/11/18 09:14:02;;;;;;;;;;;9.10;99.90;;;;;;5020104;28;19928;-68
2022/11/18 09:16:28;;;;;;;;;;;9.20;99.90;;;;;;5020037;28;20146;-71
2022/11/18 09:18:55;;;;;;;;;;;9.20;99.90;;;;;;5020410;28;19917;-68
2022/11/18 09:21:20;;;;;;;;;;;9.30;99.90;;;;;;5018740;28;19921;-68
2022/11/18 09:23:46;;;;;;;;;;;9.30;99.90;;;;;;5018489;28;19928;-70
2022/11/18 09:26:13;;;;;;;;;;;9.30;99.90;;;;;;5018730;28;20347;-67
2022/11/18 09:28:39;;;;;;;;;;;9.30;99.90;;;;;;5018983;28;19998;-69
2022/11/18 09:31:06;;;;;;;;;;;9.30;99.90;;;;;;5020896;28;19951;-70
2022/11/18 09:33:32;;;;;;;;;;;9.20;99.90;;;;;;5018652;28;20042;-66
2022/11/18 09:35:58;;;;;;;;;;;9.30;99.90;;;;;;5018687;28;20388;-67
2022/11/18 09:38:23;;;;;;;;;;;9.30;99.90;;;;;;5025967;28;20401;-69
2022/11/18 09:40:58;;;;;;;;;;;9.30;99.90;;;;;;5024592;28;19917;-69
2022/11/18 09:43:41;;;;;;;;;;;9.30;99.90;;;;;;5022128;28;19925;-67
2022/11/18 09:46:18;;;;;;;;;;;9.30;99.90;;;;;;5021821;28;19917;-68
2022/11/18 09:51:31;;;;;;;;;;;9.40;99.90;;;;;;5023558;28;19966;-68
2022/11/18 09:53:57;;;;;;;;;;;9.40;99.90;;;;;;5020606;28;20008;-69
2022/11/18 09:56:22;;;;;;;;;;;9.40;99.90;;;;;;5026012;28;20001;-68
2022/11/18 09:58:48;;;;;;;;;;;9.40;99.90;;;;;;5022802;28;19948;-70
2022/11/18 10:01:16;;;;;;;;;;;9.40;99.90;;;;;;5027672;28;19923;-68
2022/11/18 10:03:42;;;;;;;;;;;9.50;99.90;;;;;;5024499;28;19913;-67
2022/11/18 10:06:10;;;;;;;;;;;9.60;99.90;;;;;;5024979;28;19971;-69
2022/11/18 10:08:43;;;;;;;;;;;9.60;99.90;;;;;;5022736;28;20443;-68
2022/11/18 10:11:08;;;;;;;;;;;9.60;99.90;;;;;;5020591;28;19917;-69
2022/11/18 10:13:34;;;;;;;;;;;9.60;99.90;;;;;;5025163;28;20466;-68
2022/11/18 10:16:23;;;;;;;;;;;9.60;99.90;;;;;;5024661;28;19916;-68
2022/11/18 10:18:53;;;;;;;;;;;9.70;99.90;;;;;;5023276;28;19917;-68
2022/11/18 10:21:37;;;;;;;;;;;9.70;99.90;;;;;;5021514;28;19920;-67
2022/11/18 10:24:16;;;;;;;;;;;9.70;99.90;;;;;;5021619;28;19924;-68
2022/11/18 10:26:41;;;;;;;;;;;9.70;99.90;;;;;;5022695;28;20020;-71
2022/11/18 10:29:09;;;;;;;;;;;9.80;99.90;;;;;;5022951;28;20453;-70
2022/11/18 10:31:39;;;;;;;;;;;9.80;99.90;;;;;;5023330;28;19921;-67
2022/11/18 10:34:04;;;;;;;;;;;9.90;99.90;;;;;;5025179;28;19920;-68
2022/11/18 10:36:33;;;;;;;;;;;9.90;99.90;;;;;;5025660;28;20016;-68
2022/11/18 10:39:07;;;;;;;;;;;9.90;99.90;;;;;;5023553;28;20000;-68
2022/11/18 10:41:59;;;;;;;;;;;10.00;99.90;;;;;;5024761;28;19919;-67
2022/11/18 10:44:34;;;;;;;;;;;10.00;99.90;;;;;;5019223;28;20273;-68
2022/11/18 10:47:15;;;;;;;;;;;10.00;99.90;;;;;;5024162;28;20047;-68
2022/11/18 10:49:40;;;;;;;;;;;9.90;99.90;;;;;;5020058;28;19917;-68
2022/11/18 10:52:10;;;;;;;;;;;9.90;99.90;;;;;;5022631;28;19943;-71
2022/11/18 10:54:36;;;;;;;;;;;9.80;99.90;;;;;;5020081;28;20365;-70
2022/11/18 10:57:20;;;;;;;;;;;9.80;99.90;;;;;;5022510;28;19920;-68
2022/11/18 10:59:49;;;;;;;;;;;9.80;99.90;;;;;;5017366;28;19917;-69
2022/11/18 11:02:18;;;;;;;;;;;9.80;99.90;;;;;;5022697;28;19917;-68
2022/11/18 11:04:44;;;;;;;;;;;9.80;99.90;;;;;;5022231;28;20474;-72
2022/11/18 11:07:15;;;;;;;;;;;9.80;99.90;;;;;;5019601;28;19917;-68
2022/11/18 11:09:40;;;;;;;;;;;9.70;99.90;;;;;;5019680;28;19916;-71
2022/11/18 11:12:13;;;;;;;;;;;9.70;99.90;;;;;;5022080;28;19983;-71
2022/11/18 11:14:45;;;;;;;;;;;9.70;99.90;;;;;;5019753;28;19925;-68
2022/11/18 11:17:19;;;;;;;;;;;9.60;99.90;;;;;;5019338;28;20432;-67
2022/11/18 11:19:50;;;;;;;;;;;9.60;99.90;;;;;;5021269;28;19917;-69
2022/11/18 11:22:16;;;;;;;;;;;9.60;99.90;;;;;;5022508;28;19921;-68
2022/11/18 11:24:42;;;;;;;;;;;9.50;99.90;;;;;;5020991;28;19924;-67
2022/11/18 11:27:11;;;;;;;;;;;9.50;99.90;;;;;;5022275;28;19917;-67
2022/11/18 11:29:52;;;;;;;;;;;9.50;99.90;;;;;;5022264;28;19968;-69
2022/11/18 11:32:24;;;;;;;;;;;9.50;99.90;;;;;;5017882;28;19913;-68
2022/11/18 11:35:08;;;;;;;;;;;9.50;99.90;;;;;;5019698;28;20000;-68
2022/11/18 11:37:34;;;;;;;;;;;9.50;99.90;;;;;;5021019;28;19922;-69
2022/11/18 11:40:18;;;;;;;;;;;9.60;99.90;;;;;;5021558;28;19920;-69
2022/11/18 11:42:52;;;;;;;;;;;9.60;99.90;;;;;;5020538;28;19913;-69
2022/11/18 11:45:26;;;;;;;;;;;9.70;99.90;;;;;;5023722;28;19990;-69
2022/11/18 11:48:06;;;;;;;;;;;9.70;99.90;;;;;;5021064;28;19920;-66
2022/11/18 11:50:32;;;;;;;;;;;9.80;99.90;;;;;;5017624;28;19913;-67
2022/11/18 11:53:00;;;;;;;;;;;9.90;99.90;;;;;;5021718;28;19928;-70
2022/11/18 11:55:30;;;;;;;;;;;9.90;99.90;;;;;;5021211;28;20239;-67
2022/11/18 11:58:22;;;;;;;;;;;10.00;99.90;;;;;;5017392;28;19921;-68
2022/11/18 12:00:59;;;;;;;;;;;10.00;99.90;;;;;;5021256;28;19917;-69
2022/11/18 12:03:45;;;;;;;;;;;10.10;99.90;;;;;;5020164;28;19917;-67
2022/11/18 12:06:11;;;;;;;;;;;10.20;99.90;;;;;;5020857;28;19917;-70
2022/11/18 12:08:38;;;;;;;;;;;10.20;99.90;;;;;;5018256;28;19937;-71
2022/11/18 12:11:29;;;;;;;;;;;10.20;99.90;;;;;;5015149;28;19921;-68
2022/11/18 12:13:59;;;;;;;;;;;10.20;99.90;;;;;;5014532;28;19917;-73
2022/11/18 12:16:44;;;;;;;;;;;10.30;99.90;;;;;;5016522;28;19916;-71
2022/11/18 12:19:16;;;;;;;;;;;10.30;99.90;;;;;;5020664;28;19924;-68
2022/11/18 12:21:44;;;;;;;;;;;10.30;99.90;;;;;;5019607;28;20266;-68
2022/11/18 12:24:30;;;;;;;;;;;10.30;99.90;;;;;;5015775;28;20485;-67
2022/11/18 12:26:56;;;;;;;;;;;10.30;99.90;;;;;;5021614;28;19952;-69
2022/11/18 12:29:23;;;;;;;;;;;10.30;99.90;;;;;;5021662;28;19917;-68
2022/11/18 12:31:58;;;;;;;;;;;10.30;99.90;;;;;;5021522;28;19921;-68
2022/11/18 12:34:23;;;;;;;;;;;10.30;99.90;;;;;;5018020;28;19931;-71
2022/11/18 12:36:49;;;;;;;;;;;10.30;99.90;;;;;;5020297;28;19913;-68
2022/11/18 12:39:26;;;;;;;;;;;10.30;99.90;;;;;;5018841;28;19928;-69
2022/11/18 12:44:38;;;;;;;;;;;10.30;99.90;;;;;;5020249;28;20002;-67
2022/11/18 12:47:10;;;;;;;;;;;10.30;99.90;;;;;;5017808;28;20362;-65
2022/11/18 12:49:35;;;;;;;;;;;10.30;99.90;;;;;;5018220;28;19921;-67
2022/11/18 12:52:02;;;;;;;;;;;10.30;99.90;;;;;;5017997;28;19913;-68
2022/11/18 12:54:36;;;;;;;;;;;10.30;99.90;;;;;;5015789;28;19925;-67
2022/11/18 12:57:22;;;;;;;;;;;10.30;99.90;;;;;;5020503;28;20449;-67
2022/11/18 12:59:48;;;;;;;;;;;10.40;99.90;;;;;;5009485;28;20328;-68
2022/11/18 13:02:16;;;;;;;;;;;10.40;99.90;;;;;;5017163;28;19967;-67
2022/11/18 13:04:41;;;;;;;;;;;10.40;99.90;;;;;;5018775;28;20380;-68
2022/11/18 13:08:11;;;;;;;;;;;10.40;99.90;;;;;;5018744;28;19913;-67
2022/11/18 13:09:55;;;;;;;;;;;10.40;99.90;;;;;;5019146;28;19924;-70
2022/11/18 13:12:24;;;;;;;;;;;10.30;99.90;;;;;;5021092;28;20010;-68
2022/11/18 13:17:57;;;;;;;;;;;10.30;99.90;;;;;;5019193;28;20407;-66
2022/11/18 13:20:35;;;;;;;;;;;10.40;99.90;;;;;;5014810;28;19994;-68
2022/11/18 13:26:04;;;;;;;;;;;10.40;99.90;;;;;;5019113;28;19963;-68
2022/11/18 13:28:48;;;;;;;;;;;10.40;99.90;;;;;;5021026;28;19971;-68
2022/11/18 13:31:30;;;;;;;;;;;10.40;99.90;;;;;;5014574;28;20008;-68
2022/11/18 13:34:00;;;;;;;;;;;10.40;99.90;;;;;;5016177;28;19928;-69
2022/11/18 13:36:25;;;;;;;;;;;10.40;99.90;;;;;;5018317;28;19917;-65
2022/11/18 13:38:55;;;;;;;;;;;10.30;99.90;;;;;;5019680;28;19923;-65
2022/11/18 13:41:23;;;;;;;;;;;10.30;99.90;;;;;;5015369;28;20024;-67
2022/11/18 13:43:49;;;;;;;;;;;10.30;99.90;;;;;;5020720;28;20342;-65
2022/11/18 13:46:17;;;;;;;;;;;10.20;99.90;;;;;;5021474;28;20019;-68
2022/11/18 13:48:48;;;;;;;;;;;10.20;99.90;;;;;;5019570;28;19920;-67
2022/11/18 13:51:14;;;;;;;;;;;10.20;99.90;;;;;;5020707;28;19919;-68
2022/11/18 13:53:39;;;;;;;;;;;10.20;99.90;;;;;;5020907;28;19916;-69
2022/11/18 13:56:07;;;;;;;;;;;10.20;99.90;;;;;;5023841;28;19947;-67
2022/11/18 13:58:43;;;;;;;;;;;10.20;99.90;;;;;;5021011;28;19924;-68
2022/11/18 14:01:19;;;;;;;;;;;10.20;99.90;;;;;;5022030;28;20282;-70
2022/11/18 14:03:59;;;;;;;;;;;10.20;99.90;;;;;;5025142;28;20358;-69
2022/11/18 14:06:29;;;;;;;;;;;10.10;99.90;;;;;;5023942;28;19913;-68
2022/11/18 14:09:10;;;;;;;;;;;10.10;99.90;;;;;;5010593;28;19924;-69
2022/11/18 14:11:37;;;;;;;;;;;10.10;99.90;;;;;;5016475;28;20440;-68
2022/11/18 14:14:03;;;;;;;;;;;10.10;99.90;;;;;;5018323;28;20602;-67
2022/11/18 14:16:28;;;;;;;;;;;10.00;99.90;;;;;;5022124;28;19917;-66
2022/11/18 14:18:53;;;;;;;;;;;10.00;99.90;;;;;;5018299;28;19952;-68
2022/11/18 14:21:27;;;;;;;;;;;10.00;99.90;;;;;;5018375;28;19928;-67
2022/11/18 14:23:54;;;;;;;;;;;9.90;99.90;;;;;;5018439;28;19967;-68
2022/11/18 14:26:34;;;;;;;;;;;9.80;99.90;;;;;;5026125;28;19990;-67
2022/11/18 14:29:00;;;;;;;;;;;9.80;99.90;;;;;;5023168;28;19917;-68
2022/11/18 14:31:32;;;;;;;;;;;9.80;99.90;;;;;;5022953;28;19917;-65
2022/11/18 14:34:04;;;;;;;;;;;9.80;99.90;;;;;;5019545;28;20038;-66
2022/11/18 14:36:30;;;;;;;;;;;9.80;99.90;;;;;;5023546;28;19924;-67
2022/11/18 14:38:55;;;;;;;;;;;9.70;99.90;;;;;;5019900;28;19917;-68
2022/11/18 14:42:04;;;;;;;;;;;9.70;99.90;;;;;;5023964;28;19928;-65
2022/11/18 14:44:09;;;;;;;;;;;9.70;99.90;;;;;;5015958;28;19952;-68
2022/11/18 14:46:38;;;;;;;;;;;9.70;99.90;;;;;;5021022;28;20620;-67
2022/11/18 14:49:05;;;;;;;;;;;9.70;99.90;;;;;;5026437;28;19916;-66
2022/11/18 14:51:30;;;;;;;;;;;9.70;99.90;;;;;;5025771;28;19947;-68
2022/11/18 14:53:56;;;;;;;;;;;9.70;99.90;;;;;;5026968;28;19921;-67
2022/11/18 14:56:23;;;;;;;;;;;9.70;99.90;;;;;;5029157;28;19916;-67
2022/11/18 14:58:48;;;;;;;;;;;9.70;99.90;;;;;;5028356;28;19959;-70
2022/11/18 15:01:14;;;;;;;;;;;9.70;99.90;;;;;;5024062;28;20290;-67